createdAt,value
2018-11-01T00:00:01.821Z,8.05
2018-11-01T00:00:05.821Z,8.06
2018-11-01T00:00:09.916Z,8.07
2018-11-01T00:00:14.023Z,8.05
2018-11-01T00:00:18.129Z,8.06
2018-11-01T00:00:22.440Z,8.07
2018-11-01T00:00:26.429Z,8.08
2018-11-01T00:00:30.517Z,8.07
2018-11-01T00:00:34.605Z,8.08
2018-11-01T00:00:38.694Z,8.07
2018-11-01T00:00:43.005Z,8.06
2018-11-01T00:00:47.337Z,8.07
2018-11-01T00:00:51.658Z,8.08
2018-11-01T00:00:55.983Z,8.08
2018-11-01T00:01:00.254Z,8.08
2018-11-01T00:01:04.358Z,8.08
2018-11-01T00:01:08.674Z,8.08
2018-11-01T00:01:12.880Z,8.08
2018-11-01T00:01:16.983Z,8.08
2018-11-01T00:01:21.192Z,8.08
2018-11-01T00:01:25.500Z,8.09
2018-11-01T00:01:29.487Z,8.08
2018-11-01T00:01:33.261Z,8.08
2018-11-01T00:01:37.484Z,8.08
2018-11-01T00:01:41.792Z,8.09
2018-11-01T00:01:46.005Z,8.09
2018-11-01T00:01:50.098Z,8.09
2018-11-01T00:01:54.348Z,8.09
2018-11-01T00:01:58.652Z,8.08
2018-11-01T00:02:02.740Z,8.09
2018-11-01T00:02:06.735Z,8.09
2018-11-01T00:02:10.829Z,8.09
2018-11-01T00:02:14.933Z,8.09
2018-11-01T00:02:19.244Z,8.1
2018-11-01T00:02:23.550Z,8.1
2018-11-01T00:02:27.858Z,8.09
2018-11-01T00:02:31.955Z,8.09
2018-11-01T00:02:36.046Z,8.09
2018-11-01T00:02:40.137Z,8.09
2018-11-01T00:02:44.340Z,8.09
2018-11-01T00:02:48.651Z,8.09
2018-11-01T00:02:52.959Z,8.09
2018-11-01T00:02:57.159Z,8.08
2018-11-01T00:03:01.465Z,8.09
2018-11-01T00:03:05.562Z,8.09
2018-11-01T00:03:09.870Z,8.09
2018-11-01T00:03:14.179Z,8.1
2018-11-01T00:03:18.372Z,8.1
2018-11-01T00:03:22.683Z,8.1
2018-11-01T00:03:26.884Z,8.1
2018-11-01T00:03:31.187Z,8.1
2018-11-01T00:03:35.192Z,8.1
2018-11-01T00:03:39.181Z,8.1
2018-11-01T00:03:43.489Z,8.1
2018-11-01T00:03:47.692Z,8.09
2018-11-01T00:03:51.900Z,8.1
2018-11-01T00:03:56.214Z,8.11
2018-11-01T00:04:00.316Z,8.11
2018-11-01T00:04:04.519Z,8.11
2018-11-01T00:04:08.827Z,8.11
2018-11-01T00:04:13.025Z,8.11
2018-11-01T00:04:17.223Z,8.12
2018-11-01T00:04:21.436Z,8.12
2018-11-01T00:04:25.755Z,8.12
2018-11-01T00:04:30.071Z,8.11
2018-11-01T00:04:34.387Z,8.12
2018-11-01T00:04:38.482Z,8.13
2018-11-01T00:04:42.630Z,8.13
2018-11-01T00:04:46.832Z,8.12
2018-11-01T00:04:51.142Z,8.12
2018-11-01T00:04:55.506Z,8.12
2018-11-01T00:04:59.708Z,8.12
2018-11-01T00:05:03.807Z,8.13
2018-11-01T00:05:07.925Z,8.13
2018-11-01T00:05:12.124Z,8.13
2018-11-01T00:05:16.429Z,8.13
2018-11-01T00:05:20.627Z,8.12
2018-11-01T00:05:24.841Z,8.13
2018-11-01T00:05:29.163Z,8.13
2018-11-01T00:05:33.359Z,8.13
2018-11-01T00:05:37.559Z,8.13
2018-11-01T00:05:41.891Z,8.14
2018-11-01T00:05:46.201Z,8.13
2018-11-01T00:05:50.404Z,8.14
2018-11-01T00:05:54.600Z,8.13
2018-11-01T00:05:58.947Z,8.13
2018-11-01T00:06:03.275Z,8.13
2018-11-01T00:06:07.480Z,8.14
2018-11-01T00:06:11.688Z,8.14
2018-11-01T00:06:16.026Z,8.14
2018-11-01T00:06:20.329Z,8.13
2018-11-01T00:06:24.527Z,8.14
2018-11-01T00:06:28.842Z,8.14
2018-11-01T00:06:33.046Z,8.14
2018-11-01T00:06:37.031Z,8.15
2018-11-01T00:06:41.129Z,8.14
2018-11-01T00:06:45.224Z,8.15
2018-11-01T00:06:49.460Z,8.15
2018-11-01T00:06:53.676Z,8.15
2018-11-01T00:06:57.983Z,8.15
2018-11-01T00:07:02.184Z,8.15
2018-11-01T00:07:06.278Z,8.15
2018-11-01T00:07:10.481Z,8.15
2018-11-01T00:07:14.787Z,8.15
2018-11-01T00:07:19.113Z,8.16
2018-11-01T00:07:23.313Z,8.15
2018-11-01T00:07:27.538Z,8.15
2018-11-01T00:07:31.893Z,8.16
2018-11-01T00:07:36.097Z,8.15
2018-11-01T00:07:40.488Z,8.16
2018-11-01T00:07:44.603Z,8.15
2018-11-01T00:07:48.926Z,8.16
2018-11-01T00:07:53.134Z,8.16
2018-11-01T00:07:57.225Z,8.15
2018-11-01T00:08:01.426Z,8.16
2018-11-01T00:08:05.630Z,8.16
2018-11-01T00:08:09.827Z,8.16
2018-11-01T00:08:14.029Z,8.17
2018-11-01T00:08:18.341Z,8.17
2018-11-01T00:08:22.657Z,8.17
2018-11-01T00:08:26.857Z,8.17
2018-11-01T00:08:30.963Z,8.17
2018-11-01T00:08:35.270Z,8.17
2018-11-01T00:08:39.358Z,8.17
2018-11-01T00:08:43.665Z,8.17
2018-11-01T00:08:47.977Z,8.17
2018-11-01T00:08:52.176Z,8.18
2018-11-01T00:08:56.378Z,8.17
2018-11-01T00:09:00.575Z,8.17
2018-11-01T00:09:04.835Z,8.18
2018-11-01T00:09:09.161Z,8.18
2018-11-01T00:09:13.466Z,8.18
2018-11-01T00:09:17.776Z,8.18
2018-11-01T00:09:21.975Z,8.18
2018-11-01T00:09:26.068Z,8.18
2018-11-01T00:09:30.268Z,8.18
2018-11-01T00:09:34.463Z,8.19
2018-11-01T00:09:38.816Z,8.18
2018-11-01T00:09:43.012Z,8.18
2018-11-01T00:09:47.214Z,8.18
2018-11-01T00:09:51.522Z,8.18
2018-11-01T00:09:55.620Z,8.18
2018-11-01T00:09:59.813Z,8.19
2018-11-01T00:10:03.909Z,8.18
2018-11-01T00:10:07.789Z,8.19
2018-11-01T00:10:11.990Z,8.19
2018-11-01T00:10:16.090Z,8.2
2018-11-01T00:10:20.419Z,8.2
2018-11-01T00:10:24.407Z,8.2
2018-11-01T00:10:28.409Z,8.19
2018-11-01T00:10:32.398Z,8.19
2018-11-01T00:10:36.597Z,8.19
2018-11-01T00:10:40.895Z,8.2
2018-11-01T00:10:45.095Z,8.2
2018-11-01T00:10:49.076Z,8.2
2018-11-01T00:10:53.274Z,8.2
2018-11-01T00:10:57.471Z,8.2
2018-11-01T00:11:01.672Z,8.2
2018-11-01T00:11:05.653Z,8.2
2018-11-01T00:11:09.853Z,8.21
2018-11-01T00:11:14.046Z,8.2
2018-11-01T00:11:18.137Z,8.21
2018-11-01T00:11:22.332Z,8.21
2018-11-01T00:11:26.421Z,8.21
2018-11-01T00:11:30.624Z,8.22
2018-11-01T00:11:34.610Z,8.22
2018-11-01T00:11:38.817Z,8.22
2018-11-01T00:11:43.130Z,8.21
2018-11-01T00:11:47.439Z,8.21
2018-11-01T00:11:51.641Z,8.22
2018-11-01T00:11:55.952Z,8.21
2018-11-01T00:12:00.277Z,8.21
2018-11-01T00:12:04.528Z,8.22
2018-11-01T00:12:08.622Z,8.21
2018-11-01T00:12:12.824Z,8.21
2018-11-01T00:12:16.918Z,8.23
2018-11-01T00:12:21.113Z,8.21
2018-11-01T00:12:25.197Z,8.23
2018-11-01T00:12:29.391Z,8.21
2018-11-01T00:12:33.273Z,8.21
2018-11-01T00:12:37.475Z,8.22
2018-11-01T00:12:41.779Z,8.23
2018-11-01T00:12:45.900Z,8.22
2018-11-01T00:12:50.109Z,8.21
2018-11-01T00:12:54.196Z,8.22
2018-11-01T00:12:58.500Z,8.22
2018-11-01T00:13:02.604Z,8.21
2018-11-01T00:13:06.694Z,8.22
2018-11-01T00:13:10.994Z,8.22
2018-11-01T00:13:15.297Z,8.21
2018-11-01T00:13:19.610Z,8.22
2018-11-01T00:13:23.707Z,8.23
2018-11-01T00:13:28.037Z,8.23
2018-11-01T00:13:32.238Z,8.24
2018-11-01T00:13:36.464Z,8.23
2018-11-01T00:13:40.766Z,8.23
2018-11-01T00:13:44.856Z,8.24
2018-11-01T00:13:48.953Z,8.23
2018-11-01T00:13:53.161Z,8.23
2018-11-01T00:13:57.360Z,8.23
2018-11-01T00:14:01.673Z,8.23
2018-11-01T00:14:05.774Z,8.24
2018-11-01T00:14:09.757Z,8.23
2018-11-01T00:14:14.072Z,8.23
2018-11-01T00:14:18.385Z,8.24
2018-11-01T00:14:22.266Z,8.24
2018-11-01T00:14:26.365Z,8.23
2018-11-01T00:14:30.473Z,8.25
2018-11-01T00:14:34.672Z,8.25
2018-11-01T00:14:38.980Z,8.25
2018-11-01T00:14:42.870Z,8.24
2018-11-01T00:14:46.961Z,8.25
2018-11-01T00:14:51.270Z,8.25
2018-11-01T00:14:55.473Z,8.25
2018-11-01T00:14:59.458Z,8.25
2018-11-01T00:15:03.410Z,8.25
2018-11-01T00:15:07.397Z,8.26
2018-11-01T00:15:11.600Z,8.25
2018-11-01T00:15:15.922Z,8.26
2018-11-01T00:15:20.238Z,8.26
2018-11-01T00:15:24.336Z,8.25
2018-11-01T00:15:28.652Z,8.25
2018-11-01T00:15:32.863Z,8.26
2018-11-01T00:15:36.962Z,8.26
2018-11-01T00:15:41.156Z,8.26
2018-11-01T00:15:45.248Z,8.26
2018-11-01T00:15:49.451Z,8.26
2018-11-01T00:15:53.657Z,8.26
2018-11-01T00:15:57.881Z,8.26
2018-11-01T00:16:02.094Z,8.27
2018-11-01T00:16:06.400Z,8.27
2018-11-01T00:16:10.603Z,8.27
2018-11-01T00:16:14.905Z,8.27
2018-11-01T00:16:19.209Z,8.28
2018-11-01T00:16:23.555Z,8.27
2018-11-01T00:16:27.752Z,8.28
2018-11-01T00:16:31.958Z,8.28
2018-11-01T00:16:36.262Z,8.28
2018-11-01T00:16:40.244Z,8.28
2018-11-01T00:16:44.453Z,8.29
2018-11-01T00:16:48.759Z,8.29
2018-11-01T00:16:52.848Z,8.3
2018-11-01T00:16:57.049Z,8.3
2018-11-01T00:17:01.351Z,8.29
2018-11-01T00:17:05.721Z,8.3
2018-11-01T00:17:10.031Z,8.29
2018-11-01T00:17:14.349Z,8.29
2018-11-01T00:17:18.655Z,8.3
2018-11-01T00:17:22.854Z,8.29
2018-11-01T00:17:27.159Z,8.3
2018-11-01T00:17:31.036Z,8.31
2018-11-01T00:17:35.237Z,8.31
2018-11-01T00:17:39.556Z,8.31
2018-11-01T00:17:43.867Z,8.3
2018-11-01T00:17:48.081Z,8.31
2018-11-01T00:17:52.173Z,8.32
2018-11-01T00:17:56.484Z,8.31
2018-11-01T00:18:00.575Z,8.31
2018-11-01T00:18:04.780Z,8.3
2018-11-01T00:18:08.993Z,8.32
2018-11-01T00:18:12.973Z,8.31
2018-11-01T00:18:17.176Z,8.32
2018-11-01T00:18:21.487Z,8.32
2018-11-01T00:18:25.592Z,8.33
2018-11-01T00:18:29.806Z,8.32
2018-11-01T00:18:34.015Z,8.33
2018-11-01T00:18:38.239Z,8.33
2018-11-01T00:18:42.340Z,8.34
2018-11-01T00:18:46.440Z,8.34
2018-11-01T00:18:50.752Z,8.35
2018-11-01T00:18:54.954Z,8.34
2018-11-01T00:18:59.045Z,8.36
2018-11-01T00:19:03.147Z,8.35
2018-11-01T00:19:07.360Z,8.36
2018-11-01T00:19:11.556Z,8.36
2018-11-01T00:19:15.759Z,8.36
2018-11-01T00:19:19.962Z,8.37
2018-11-01T00:19:24.273Z,8.37
2018-11-01T00:19:28.481Z,8.37
2018-11-01T00:19:32.689Z,8.37
2018-11-01T00:19:36.989Z,8.37
2018-11-01T00:19:41.078Z,8.38
2018-11-01T00:19:45.277Z,8.39
2018-11-01T00:19:49.539Z,8.38
2018-11-01T00:19:53.309Z,8.39
2018-11-01T00:19:57.296Z,8.39
2018-11-01T00:20:01.389Z,8.39
2018-11-01T00:20:05.530Z,8.38
2018-11-01T00:20:09.523Z,8.38
2018-11-01T00:20:13.882Z,8.38
2018-11-01T00:20:18.087Z,8.38
2018-11-01T00:20:22.349Z,8.37
2018-11-01T00:20:26.348Z,8.38
2018-11-01T00:20:30.557Z,8.38
2018-11-01T00:20:34.860Z,8.37
2018-11-01T00:20:38.959Z,8.37
2018-11-01T00:20:43.076Z,8.38
2018-11-01T00:20:47.062Z,8.36
2018-11-01T00:20:51.259Z,8.37
2018-11-01T00:20:55.410Z,8.37
2018-11-01T00:20:59.396Z,8.37
2018-11-01T00:21:03.590Z,8.36
2018-11-01T00:21:07.691Z,8.37
2018-11-01T00:21:12.008Z,8.37
2018-11-01T00:21:16.217Z,8.37
2018-11-01T00:21:20.533Z,8.37
2018-11-01T00:21:24.629Z,8.36
2018-11-01T00:21:28.937Z,8.36
2018-11-01T00:21:33.135Z,8.36
2018-11-01T00:21:37.435Z,8.36
2018-11-01T00:21:41.747Z,8.36
2018-11-01T00:21:45.954Z,8.35
2018-11-01T00:21:50.151Z,8.35
2018-11-01T00:21:54.465Z,8.35
2018-11-01T00:21:58.664Z,8.35
2018-11-01T00:22:02.905Z,8.35
2018-11-01T00:22:07.107Z,8.34
2018-11-01T00:22:11.411Z,8.34
2018-11-01T00:22:15.716Z,8.33
2018-11-01T00:22:19.929Z,8.33
2018-11-01T00:22:24.129Z,8.33
2018-11-01T00:22:28.431Z,8.33
2018-11-01T00:22:32.422Z,8.32
2018-11-01T00:22:36.736Z,8.32
2018-11-01T00:22:40.833Z,8.31
2018-11-01T00:22:44.936Z,8.31
2018-11-01T00:22:49.146Z,8.32
2018-11-01T00:22:53.236Z,8.3
2018-11-01T00:22:57.449Z,8.3
2018-11-01T00:23:01.760Z,8.31
2018-11-01T00:23:05.862Z,8.3
2018-11-01T00:23:10.168Z,8.28
2018-11-01T00:23:14.370Z,8.28
2018-11-01T00:23:18.673Z,8.28
2018-11-01T00:23:22.764Z,8.28
2018-11-01T00:23:26.648Z,8.27
2018-11-01T00:23:30.956Z,8.26
2018-11-01T00:23:35.052Z,8.27
2018-11-01T00:23:39.411Z,8.26
2018-11-01T00:23:43.616Z,8.26
2018-11-01T00:23:47.932Z,8.26
2018-11-01T00:23:52.141Z,8.25
2018-11-01T00:23:56.344Z,8.24
2018-11-01T00:24:00.441Z,8.23
2018-11-01T00:24:04.644Z,8.23
2018-11-01T00:24:08.852Z,8.23
2018-11-01T00:24:13.053Z,8.21
2018-11-01T00:24:17.145Z,8.21
2018-11-01T00:24:21.345Z,8.21
2018-11-01T00:24:25.438Z,8.2
2018-11-01T00:24:29.532Z,8.19
2018-11-01T00:24:33.731Z,8.19
2018-11-01T00:24:38.041Z,8.18
2018-11-01T00:24:42.241Z,8.17
2018-11-01T00:24:46.438Z,8.17
2018-11-01T00:24:50.531Z,8.15
2018-11-01T00:24:54.636Z,8.14
2018-11-01T00:24:58.859Z,8.14
2018-11-01T00:25:02.949Z,8.13
2018-11-01T00:25:06.844Z,8.13
2018-11-01T00:25:10.834Z,8.13
2018-11-01T00:25:14.935Z,8.12
2018-11-01T00:25:19.254Z,8.11
2018-11-01T00:25:23.132Z,8.1
2018-11-01T00:25:27.430Z,8.1
2018-11-01T00:25:31.523Z,8.08
2018-11-01T00:25:35.823Z,8.08
2018-11-01T00:25:40.132Z,8.07
2018-11-01T00:25:44.447Z,8.07
2018-11-01T00:25:48.749Z,8.05
2018-11-01T00:25:53.066Z,8.05
2018-11-01T00:25:57.386Z,8.03
2018-11-01T00:26:01.588Z,8.03
2018-11-01T00:26:05.467Z,8.03
2018-11-01T00:26:09.776Z,8.02
2018-11-01T00:26:13.983Z,8.01
2018-11-01T00:26:18.284Z,8
2018-11-01T00:26:22.376Z,8
2018-11-01T00:26:26.680Z,7.99
2018-11-01T00:26:30.887Z,7.99
2018-11-01T00:26:35.084Z,7.98
2018-11-01T00:26:39.176Z,7.98
2018-11-01T00:26:43.372Z,7.96
2018-11-01T00:26:47.461Z,7.96
2018-11-01T00:26:51.657Z,7.96
2018-11-01T00:26:55.755Z,7.95
2018-11-01T00:26:59.963Z,7.94
2018-11-01T00:27:04.058Z,7.96
2018-11-01T00:27:08.153Z,7.95
2018-11-01T00:27:12.245Z,7.93
2018-11-01T00:27:16.561Z,7.94
2018-11-01T00:27:20.754Z,7.94
2018-11-01T00:27:25.121Z,7.93
2018-11-01T00:27:29.220Z,7.93
2018-11-01T00:27:33.423Z,7.92
2018-11-01T00:27:37.518Z,7.92
2018-11-01T00:27:41.616Z,7.91
2018-11-01T00:27:45.829Z,7.9
2018-11-01T00:27:50.040Z,7.91
2018-11-01T00:27:54.347Z,7.9
2018-11-01T00:27:58.456Z,7.91
2018-11-01T00:28:02.438Z,7.91
2018-11-01T00:28:06.528Z,7.9
2018-11-01T00:28:10.515Z,7.9
2018-11-01T00:28:14.719Z,7.9
2018-11-01T00:28:18.921Z,7.89
2018-11-01T00:28:23.238Z,7.9
2018-11-01T00:28:27.562Z,7.9
2018-11-01T00:28:31.820Z,7.88
2018-11-01T00:28:36.017Z,7.89
2018-11-01T00:28:40.115Z,7.88
2018-11-01T00:28:44.425Z,7.89
2018-11-01T00:28:48.634Z,7.88
2018-11-01T00:28:52.841Z,7.88
2018-11-01T00:28:57.151Z,7.89
2018-11-01T00:29:01.363Z,7.88
2018-11-01T00:29:05.672Z,7.88
2018-11-01T00:29:09.870Z,7.88
2018-11-01T00:29:13.968Z,7.88
2018-11-01T00:29:17.962Z,7.88
2018-11-01T00:29:22.168Z,7.87
2018-11-01T00:29:26.259Z,7.88
2018-11-01T00:29:30.352Z,7.88
2018-11-01T00:29:34.557Z,7.88
2018-11-01T00:29:38.762Z,7.88
2018-11-01T00:29:42.962Z,7.88
2018-11-01T00:29:47.170Z,7.88
2018-11-01T00:29:51.475Z,7.88
2018-11-01T00:29:55.783Z,7.88
2018-11-01T00:29:59.984Z,7.87
2018-11-01T00:30:03.975Z,7.88
2018-11-01T00:30:07.966Z,7.88
2018-11-01T00:30:12.061Z,7.88
2018-11-01T00:30:16.366Z,7.88
2018-11-01T00:30:20.363Z,7.88
2018-11-01T00:30:24.569Z,7.88
2018-11-01T00:30:28.878Z,7.88
2018-11-01T00:30:32.973Z,7.88
2018-11-01T00:30:37.301Z,7.88
2018-11-01T00:30:41.509Z,7.89
2018-11-01T00:30:45.824Z,7.88
2018-11-01T00:30:50.024Z,7.89
2018-11-01T00:30:54.221Z,7.88
2018-11-01T00:30:58.424Z,7.88
2018-11-01T00:31:02.557Z,7.88
2018-11-01T00:31:06.759Z,7.87
2018-11-01T00:31:10.853Z,7.89
2018-11-01T00:31:15.165Z,7.89
2018-11-01T00:31:19.474Z,7.88
2018-11-01T00:31:23.682Z,7.89
2018-11-01T00:31:27.995Z,7.89
2018-11-01T00:31:32.301Z,7.89
2018-11-01T00:31:36.408Z,7.89
2018-11-01T00:31:40.403Z,7.89
2018-11-01T00:31:44.387Z,7.9
2018-11-01T00:31:48.368Z,7.9
2018-11-01T00:31:52.675Z,7.9
2018-11-01T00:31:56.980Z,7.9
2018-11-01T00:32:01.177Z,7.9
2018-11-01T00:32:05.577Z,7.9
2018-11-01T00:32:09.677Z,7.91
2018-11-01T00:32:13.556Z,7.91
2018-11-01T00:32:17.761Z,7.92
2018-11-01T00:32:21.961Z,7.92
2018-11-01T00:32:25.952Z,7.92
2018-11-01T00:32:30.199Z,7.93
2018-11-01T00:32:34.287Z,7.93
2018-11-01T00:32:38.600Z,7.94
2018-11-01T00:32:42.805Z,7.94
2018-11-01T00:32:47.004Z,7.95
2018-11-01T00:32:51.199Z,7.95
2018-11-01T00:32:55.501Z,7.95
2018-11-01T00:32:59.489Z,7.96
2018-11-01T00:33:04.057Z,7.96
2018-11-01T00:33:08.365Z,7.96
2018-11-01T00:33:12.675Z,7.97
2018-11-01T00:33:16.887Z,7.97
2018-11-01T00:33:21.190Z,7.98
2018-11-01T00:33:25.388Z,7.98
2018-11-01T00:33:29.698Z,7.99
2018-11-01T00:33:34.012Z,8
2018-11-01T00:33:38.207Z,8
2018-11-01T00:33:42.414Z,8
2018-11-01T00:33:46.565Z,8.01
2018-11-01T00:33:50.666Z,8.01
2018-11-01T00:33:54.867Z,8.01
2018-11-01T00:33:59.068Z,8.02
2018-11-01T00:34:03.378Z,8.02
2018-11-01T00:34:07.692Z,8.03
2018-11-01T00:34:11.994Z,8.03
2018-11-01T00:34:16.194Z,8.03
2018-11-01T00:34:20.501Z,8.05
2018-11-01T00:34:24.815Z,8.04
2018-11-01T00:34:28.589Z,8.05
2018-11-01T00:34:32.677Z,8.07
2018-11-01T00:34:36.875Z,8.07
2018-11-01T00:34:41.181Z,8.08
2018-11-01T00:34:45.494Z,8.08
2018-11-01T00:34:49.799Z,8.08
2018-11-01T00:34:53.884Z,8.09
2018-11-01T00:34:58.080Z,8.09
2018-11-01T00:35:02.174Z,8.09
2018-11-01T00:35:06.176Z,8.1
2018-11-01T00:35:10.386Z,8.1
2018-11-01T00:35:14.689Z,8.11
2018-11-01T00:35:18.894Z,8.11
2018-11-01T00:35:22.989Z,8.12
2018-11-01T00:35:27.300Z,8.12
2018-11-01T00:35:31.399Z,8.12
2018-11-01T00:35:35.703Z,8.14
2018-11-01T00:35:39.693Z,8.15
2018-11-01T00:35:43.893Z,8.15
2018-11-01T00:35:48.089Z,8.15
2018-11-01T00:35:52.397Z,8.16
2018-11-01T00:35:56.601Z,8.17
2018-11-01T00:36:00.908Z,8.16
2018-11-01T00:36:05.113Z,8.18
2018-11-01T00:36:09.107Z,8.17
2018-11-01T00:36:13.202Z,8.18
2018-11-01T00:36:17.407Z,8.19
2018-11-01T00:36:21.720Z,8.18
2018-11-01T00:36:25.828Z,8.19
2018-11-01T00:36:30.020Z,8.2
2018-11-01T00:36:34.221Z,8.2
2018-11-01T00:36:38.432Z,8.2
2018-11-01T00:36:42.424Z,8.2
2018-11-01T00:36:46.408Z,8.21
2018-11-01T00:36:50.394Z,8.21
2018-11-01T00:36:54.595Z,8.22
2018-11-01T00:36:58.802Z,8.23
2018-11-01T00:37:03.009Z,8.24
2018-11-01T00:37:06.999Z,8.24
2018-11-01T00:37:11.308Z,8.24
2018-11-01T00:37:15.504Z,8.25
2018-11-01T00:37:19.810Z,8.26
2018-11-01T00:37:24.120Z,8.26
2018-11-01T00:37:28.431Z,8.27
2018-11-01T00:37:32.751Z,8.26
2018-11-01T00:37:36.954Z,8.28
2018-11-01T00:37:41.042Z,8.29
2018-11-01T00:37:45.250Z,8.29
2018-11-01T00:37:49.341Z,8.29
2018-11-01T00:37:53.646Z,8.31
2018-11-01T00:37:57.946Z,8.31
2018-11-01T00:38:02.141Z,8.3
2018-11-01T00:38:06.022Z,8.31
2018-11-01T00:38:10.328Z,8.32
2018-11-01T00:38:14.530Z,8.32
2018-11-01T00:38:18.748Z,8.32
2018-11-01T00:38:22.833Z,8.32
2018-11-01T00:38:27.038Z,8.33
2018-11-01T00:38:31.134Z,8.34
2018-11-01T00:38:35.235Z,8.34
2018-11-01T00:38:39.432Z,8.35
2018-11-01T00:38:43.742Z,8.35
2018-11-01T00:38:47.842Z,8.34
2018-11-01T00:38:52.041Z,8.36
2018-11-01T00:38:56.242Z,8.36
2018-11-01T00:39:00.439Z,8.36
2018-11-01T00:39:04.751Z,8.37
2018-11-01T00:39:08.631Z,8.37
2018-11-01T00:39:12.939Z,8.38
2018-11-01T00:39:17.164Z,8.37
2018-11-01T00:39:21.473Z,8.39
2018-11-01T00:39:25.568Z,8.38
2018-11-01T00:39:29.668Z,8.39
2018-11-01T00:39:33.860Z,8.4
2018-11-01T00:39:38.059Z,8.4
2018-11-01T00:39:42.042Z,8.4
2018-11-01T00:39:46.243Z,8.41
2018-11-01T00:39:50.443Z,8.42
2018-11-01T00:39:54.647Z,8.41
2018-11-01T00:39:58.954Z,8.43
2018-11-01T00:40:02.987Z,8.42
2018-11-01T00:40:07.094Z,8.44
2018-11-01T00:40:11.302Z,8.44
2018-11-01T00:40:15.499Z,8.44
2018-11-01T00:40:19.716Z,8.44
2018-11-01T00:40:23.806Z,8.44
2018-11-01T00:40:27.893Z,8.45
2018-11-01T00:40:32.095Z,8.45
2018-11-01T00:40:36.302Z,8.44
2018-11-01T00:40:40.389Z,8.45
2018-11-01T00:40:44.377Z,8.45
2018-11-01T00:40:48.364Z,8.45
2018-11-01T00:40:52.675Z,8.46
2018-11-01T00:40:56.987Z,8.46
2018-11-01T00:41:01.081Z,8.45
2018-11-01T00:41:05.397Z,8.46
2018-11-01T00:41:09.703Z,8.45
2018-11-01T00:41:13.795Z,8.45
2018-11-01T00:41:17.885Z,8.46
2018-11-01T00:41:22.088Z,8.46
2018-11-01T00:41:26.183Z,8.47
2018-11-01T00:41:30.486Z,8.47
2018-11-01T00:41:34.690Z,8.46
2018-11-01T00:41:38.887Z,8.46
2018-11-01T00:41:43.092Z,8.46
2018-11-01T00:41:47.181Z,8.46
2018-11-01T00:41:51.493Z,8.46
2018-11-01T00:41:55.691Z,8.47
2018-11-01T00:42:00.008Z,8.46
2018-11-01T00:42:04.103Z,8.46
2018-11-01T00:42:08.301Z,8.46
2018-11-01T00:42:12.287Z,8.46
2018-11-01T00:42:16.619Z,8.46
2018-11-01T00:42:20.825Z,8.46
2018-11-01T00:42:25.028Z,8.45
2018-11-01T00:42:29.232Z,8.46
2018-11-01T00:42:33.424Z,8.45
2018-11-01T00:42:37.626Z,8.46
2018-11-01T00:42:41.715Z,8.46
2018-11-01T00:42:45.814Z,8.45
2018-11-01T00:42:50.118Z,8.44
2018-11-01T00:42:54.311Z,8.44
2018-11-01T00:42:58.508Z,8.44
2018-11-01T00:43:02.759Z,8.44
2018-11-01T00:43:06.750Z,8.44
2018-11-01T00:43:10.849Z,8.43
2018-11-01T00:43:15.052Z,8.43
2018-11-01T00:43:19.260Z,8.42
2018-11-01T00:43:23.261Z,8.42
2018-11-01T00:43:27.578Z,8.42
2018-11-01T00:43:31.888Z,8.42
2018-11-01T00:43:35.874Z,8.42
2018-11-01T00:43:40.189Z,8.41
2018-11-01T00:43:44.491Z,8.41
2018-11-01T00:43:48.797Z,8.4
2018-11-01T00:43:53.114Z,8.4
2018-11-01T00:43:57.316Z,8.39
2018-11-01T00:44:01.521Z,8.38
2018-11-01T00:44:05.620Z,8.38
2018-11-01T00:44:09.825Z,8.38
2018-11-01T00:44:14.069Z,8.38
2018-11-01T00:44:18.167Z,8.36
2018-11-01T00:44:22.373Z,8.36
2018-11-01T00:44:26.467Z,8.35
2018-11-01T00:44:30.783Z,8.35
2018-11-01T00:44:34.986Z,8.35
2018-11-01T00:44:39.293Z,8.34
2018-11-01T00:44:43.595Z,8.34
2018-11-01T00:44:47.795Z,8.33
2018-11-01T00:44:51.675Z,8.33
2018-11-01T00:44:55.884Z,8.33
2018-11-01T00:45:00.190Z,8.32
2018-11-01T00:45:04.181Z,8.32
2018-11-01T00:45:08.485Z,8.32
2018-11-01T00:45:12.685Z,8.31
2018-11-01T00:45:16.885Z,8.31
2018-11-01T00:45:21.089Z,8.3
2018-11-01T00:45:25.287Z,8.3
2018-11-01T00:45:29.493Z,8.3
2018-11-01T00:45:33.590Z,8.3
2018-11-01T00:45:37.897Z,8.28
2018-11-01T00:45:42.202Z,8.29
2018-11-01T00:45:46.297Z,8.28
2018-11-01T00:45:50.617Z,8.28
2018-11-01T00:45:54.836Z,8.26
2018-11-01T00:45:59.037Z,8.27
2018-11-01T00:46:03.241Z,8.26
2018-11-01T00:46:07.435Z,8.26
2018-11-01T00:46:11.746Z,8.26
2018-11-01T00:46:15.838Z,8.26
2018-11-01T00:46:20.053Z,8.25
2018-11-01T00:46:24.373Z,8.25
2018-11-01T00:46:28.675Z,8.25
2018-11-01T00:46:32.888Z,8.24
2018-11-01T00:46:37.113Z,8.23
2018-11-01T00:46:41.319Z,8.25
2018-11-01T00:46:45.626Z,8.23
2018-11-01T00:46:49.938Z,8.23
2018-11-01T00:46:54.254Z,8.22
2018-11-01T00:46:58.247Z,8.21
2018-11-01T00:47:02.407Z,8.23
2018-11-01T00:47:06.509Z,8.21
2018-11-01T00:47:10.810Z,8.2
2018-11-01T00:47:14.793Z,8.21
2018-11-01T00:47:19.104Z,8.2
2018-11-01T00:47:23.407Z,8.2
2018-11-01T00:47:27.602Z,8.2
2018-11-01T00:47:31.943Z,8.19
2018-11-01T00:47:35.930Z,8.19
2018-11-01T00:47:40.135Z,8.18
2018-11-01T00:47:44.120Z,8.17
2018-11-01T00:47:48.426Z,8.18
2018-11-01T00:47:52.743Z,8.17
2018-11-01T00:47:56.957Z,8.18
2018-11-01T00:48:01.260Z,8.17
2018-11-01T00:48:05.718Z,8.17
2018-11-01T00:48:09.975Z,8.17
2018-11-01T00:48:14.215Z,8.17
2018-11-01T00:48:18.558Z,8.17
2018-11-01T00:48:22.940Z,8.17
2018-11-01T00:48:27.256Z,8.17
2018-11-01T00:48:31.571Z,8.16
2018-11-01T00:48:35.939Z,8.17
2018-11-01T00:48:40.151Z,8.16
2018-11-01T00:48:44.360Z,8.16
2018-11-01T00:48:48.670Z,8.17
2018-11-01T00:48:52.764Z,8.16
2018-11-01T00:48:56.858Z,8.16
2018-11-01T00:49:01.060Z,8.17
2018-11-01T00:49:05.405Z,8.16
2018-11-01T00:49:09.607Z,8.17
2018-11-01T00:49:13.925Z,8.17
2018-11-01T00:49:18.123Z,8.16
2018-11-01T00:49:22.224Z,8.16
2018-11-01T00:49:26.326Z,8.17
2018-11-01T00:49:30.420Z,8.17
2018-11-01T00:49:34.623Z,8.17
2018-11-01T00:49:38.932Z,8.17
2018-11-01T00:49:43.429Z,8.18
2018-11-01T00:49:47.520Z,8.17
2018-11-01T00:49:51.726Z,8.17
2018-11-01T00:49:55.929Z,8.17
2018-11-01T00:50:00.242Z,8.16
2018-11-01T00:50:04.232Z,8.17
2018-11-01T00:50:08.327Z,8.17
2018-11-01T00:50:12.561Z,8.17
2018-11-01T00:50:16.869Z,8.16
2018-11-01T00:50:20.747Z,8.17
2018-11-01T00:50:24.949Z,8.17
2018-11-01T00:50:29.140Z,8.18
2018-11-01T00:50:33.343Z,8.17
2018-11-01T00:50:37.647Z,8.17
2018-11-01T00:50:41.964Z,8.18
2018-11-01T00:50:46.171Z,8.17
2018-11-01T00:50:50.282Z,8.17
2018-11-01T00:50:54.476Z,8.18
2018-11-01T00:50:58.723Z,8.18
2018-11-01T00:51:03.082Z,8.18
2018-11-01T00:51:07.179Z,8.18
2018-11-01T00:51:11.486Z,8.18
2018-11-01T00:51:15.682Z,8.18
2018-11-01T00:51:19.782Z,8.18
2018-11-01T00:51:23.884Z,8.19
2018-11-01T00:51:28.084Z,8.18
2018-11-01T00:51:32.078Z,8.2
2018-11-01T00:51:36.171Z,8.19
2018-11-01T00:51:40.412Z,8.19
2018-11-01T00:51:44.623Z,8.19
2018-11-01T00:51:48.722Z,8.19
2018-11-01T00:51:52.862Z,8.2
2018-11-01T00:51:57.061Z,8.21
2018-11-01T00:52:01.265Z,8.2
2018-11-01T00:52:05.360Z,8.2
2018-11-01T00:52:09.459Z,8.2
2018-11-01T00:52:13.772Z,8.2
2018-11-01T00:52:17.969Z,8.2
2018-11-01T00:52:22.060Z,8.21
2018-11-01T00:52:26.361Z,8.21
2018-11-01T00:52:30.461Z,8.21
2018-11-01T00:52:34.669Z,8.21
2018-11-01T00:52:38.883Z,8.21
2018-11-01T00:52:43.193Z,8.21
2018-11-01T00:52:47.512Z,8.21
2018-11-01T00:52:51.825Z,8.22
2018-11-01T00:52:56.137Z,8.21
2018-11-01T00:53:00.445Z,8.23
2018-11-01T00:53:04.654Z,8.23
2018-11-01T00:53:08.761Z,8.22
2018-11-01T00:53:12.970Z,8.22
2018-11-01T00:53:17.286Z,8.23
2018-11-01T00:53:21.491Z,8.23
2018-11-01T00:53:25.706Z,8.23
2018-11-01T00:53:29.796Z,8.25
2018-11-01T00:53:33.894Z,8.25
2018-11-01T00:53:38.199Z,8.24
2018-11-01T00:53:42.400Z,8.25
2018-11-01T00:53:46.723Z,8.25
2018-11-01T00:53:50.932Z,8.25
2018-11-01T00:53:55.240Z,8.26
2018-11-01T00:53:59.437Z,8.26
2018-11-01T00:54:03.757Z,8.26
2018-11-01T00:54:08.073Z,8.26
2018-11-01T00:54:12.270Z,8.26
2018-11-01T00:54:16.493Z,8.27
2018-11-01T00:54:20.701Z,8.28
2018-11-01T00:54:24.799Z,8.27
2018-11-01T00:54:29.008Z,8.28
2018-11-01T00:54:33.101Z,8.28
2018-11-01T00:54:37.398Z,8.27
2018-11-01T00:54:41.646Z,8.29
2018-11-01T00:54:45.956Z,8.29
2018-11-01T00:54:50.157Z,8.29
2018-11-01T00:54:54.361Z,8.3
2018-11-01T00:54:58.670Z,8.3
2018-11-01T00:55:02.770Z,8.31
2018-11-01T00:55:06.757Z,8.31
2018-11-01T00:55:11.061Z,8.31
2018-11-01T00:55:15.371Z,8.32
2018-11-01T00:55:19.573Z,8.32
2018-11-01T00:55:23.668Z,8.32
2018-11-01T00:55:27.675Z,8.32
2018-11-01T00:55:31.984Z,8.33
2018-11-01T00:55:36.185Z,8.33
2018-11-01T00:55:40.384Z,8.33
2018-11-01T00:55:44.475Z,8.34
2018-11-01T00:55:48.781Z,8.34
2018-11-01T00:55:53.100Z,8.35
2018-11-01T00:55:57.432Z,8.34
2018-11-01T00:56:01.673Z,8.35